Time;durP1;ratioP1;P1;durP2;ratioP2;P2;SDS_P1;SDS_P2;PMS_P1;PMS_P2;Temp;Humidity;BMP_temperature;BMP_pressure;BME280_temperature;BME280_humidity;BME280_pressure;Samples;Min_cycle;Max_cycle;Signal;HPM_P1;HPM_P2
2024/04/05 00:01:03;;;;;;;0.63;0.38;;;15.90;99.90;;;;;;4230606;28;20047;-55
2024/04/05 00:03:04;;;;;;;1.13;0.65;;;15.90;99.90;;;;;;4247582;27;20043;-56
2024/04/05 00:05:06;;;;;;;2.90;0.68;;;15.90;99.90;;;;;;4247803;27;20046;-59
2024/04/05 00:07:07;;;;;;;2.10;0.30;;;15.90;99.90;;;;;;4247706;27;20035;-59
2024/04/05 00:09:09;;;;;;;0.47;0.32;;;15.90;99.90;;;;;;4230630;28;20043;-54
2024/04/05 00:11:11;;;;;;;0.45;0.20;;;15.90;99.90;;;;;;4264944;27;20054;-58
2024/04/05 00:13:12;;;;;;;2.92;0.85;;;15.90;99.90;;;;;;4248107;27;20039;-57
2024/04/05 00:15:13;;;;;;;0.50;0.32;;;15.80;99.90;;;;;;4247785;27;20504;-55
2024/04/05 00:17:15;;;;;;;1.55;0.20;;;15.80;99.90;;;;;;4230348;28;20046;-56
2024/04/05 00:19:16;;;;;;;2.35;0.30;;;15.90;99.90;;;;;;4247334;27;20047;-56
2024/04/05 00:21:17;;;;;;;0.20;0.20;;;15.90;99.90;;;;;;4247436;27;20043;-56
2024/04/05 00:23:18;;;;;;;1.40;0.30;;;15.90;99.90;;;;;;4247088;27;20051;-55
2024/04/05 00:25:21;;;;;;;0.30;0.28;;;15.90;99.90;;;;;;4247319;27;20043;-56
2024/04/05 00:27:22;;;;;;;1.02;0.30;;;15.90;99.90;;;;;;4247047;27;20085;-60
2024/04/05 00:29:23;;;;;;;0.47;0.30;;;15.90;99.90;;;;;;4247375;27;20072;-56
2024/04/05 00:31:25;;;;;;;1.15;0.30;;;15.90;99.90;;;;;;4246790;27;20077;-56
2024/04/05 00:33:26;;;;;;;0.35;0.20;;;15.90;99.90;;;;;;4247548;27;20054;-56
2024/04/05 00:35:27;;;;;;;2.05;0.88;;;15.90;99.90;;;;;;4247637;27;20043;-59
2024/04/05 00:37:28;;;;;;;1.75;0.95;;;15.80;99.90;;;;;;4247107;27;20072;-54
2024/04/05 00:39:29;;;;;;;0.45;0.40;;;15.80;99.90;;;;;;4247128;27;20118;-57
2024/04/05 00:41:32;;;;;;;1.05;0.40;;;15.70;99.90;;;;;;4247308;27;20044;-56
2024/04/05 00:43:35;;;;;;;0.40;0.40;;;15.70;99.90;;;;;;4247263;27;20043;-56
2024/04/05 00:45:36;;;;;;;0.65;0.60;;;15.80;99.90;;;;;;4246734;27;20047;-55
2024/04/05 00:47:37;;;;;;;1.67;0.35;;;15.80;99.90;;;;;;4246800;27;20047;-55
2024/04/05 00:49:39;;;;;;;2.83;0.20;;;15.80;99.90;;;;;;4247145;27;20070;-56
2024/04/05 00:51:40;;;;;;;1.05;0.43;;;15.70;99.90;;;;;;4247130;27;20043;-55
2024/04/05 00:53:42;;;;;;;0.45;0.20;;;15.70;99.90;;;;;;4230103;28;20043;-59
2024/04/05 00:55:43;;;;;;;0.77;0.57;;;15.60;99.90;;;;;;4247056;27;20628;-55
2024/04/05 00:57:46;;;;;;;0.52;0.20;;;15.60;99.90;;;;;;4246927;27;20051;-57
2024/04/05 00:59:47;;;;;;;1.23;0.32;;;15.60;99.90;;;;;;4246698;27;20050;-56
2024/04/05 01:01:48;;;;;;;0.60;0.52;;;15.60;99.90;;;;;;4246569;27;20054;-59
2024/04/05 01:03:49;;;;;;;0.95;0.30;;;15.60;99.90;;;;;;4246821;27;20143;-58
2024/04/05 01:05:51;;;;;;;0.50;0.30;;;15.60;99.90;;;;;;4246924;27;20043;-56
2024/04/05 01:07:52;;;;;;;0.85;0.20;;;15.60;99.90;;;;;;4246993;27;20153;-55
2024/04/05 01:09:54;;;;;;;1.55;0.35;;;15.60;99.90;;;;;;4263991;27;20038;-59
2024/04/05 01:11:55;;;;;;;3.15;1.08;;;15.60;99.90;;;;;;4246964;27;20047;-55
2024/04/05 01:13:58;;;;;;;0.63;0.25;;;15.60;99.90;;;;;;4247091;27;20047;-60
2024/04/05 01:16:00;;;;;;;0.65;0.28;;;15.60;99.90;;;;;;4246631;27;20047;-58
2024/04/05 01:18:03;;;;;;;1.17;0.20;;;15.50;99.90;;;;;;4246656;27;20423;-55
2024/04/05 01:20:06;;;;;;;0.95;0.68;;;15.50;99.90;;;;;;4263993;27;20484;-65
2024/04/05 01:22:11;;;;;;;1.00;0.65;;;15.30;99.90;;;;;;4263688;27;20062;-55
2024/04/05 01:24:14;;;;;;;0.40;0.25;;;15.40;99.90;;;;;;4246876;27;20047;-58
2024/04/05 01:26:15;;;;;;;0.15;0.13;;;15.50;99.90;;;;;;4246851;27;20115;-57
2024/04/05 01:28:16;;;;;;;0.25;0.08;;;15.50;99.90;;;;;;4246644;28;20062;-54
2024/04/05 01:30:17;;;;;;;1.60;1.05;;;15.50;99.90;;;;;;4246296;28;20043;-54
2024/04/05 01:32:18;;;;;;;0.20;0.20;;;15.50;99.90;;;;;;4246668;28;20070;-59
2024/04/05 01:34:19;;;;;;;2.65;0.30;;;15.50;99.90;;;;;;4246453;28;20146;-55
2024/04/05 01:36:21;;;;;;;2.15;0.32;;;15.50;99.90;;;;;;4246755;28;20058;-55
2024/04/05 01:38:22;;;;;;;2.20;0.30;;;15.50;99.90;;;;;;4246506;28;20051;-58
2024/04/05 01:40:25;;;;;;;1.83;0.90;;;15.50;99.90;;;;;;4246462;28;20612;-57
2024/04/05 01:42:26;;;;;;;0.10;0.10;;;15.40;99.90;;;;;;4263479;27;20047;-57
2024/04/05 01:44:27;;;;;;;0.55;0.20;;;15.40;99.90;;;;;;4245944;28;20048;-60
2024/04/05 01:46:29;;;;;;;0.10;0.10;;;15.30;99.90;;;;;;4246448;28;20043;-58
2024/04/05 01:48:30;;;;;;;0.50;0.40;;;15.30;99.90;;;;;;4246365;28;20043;-57
2024/04/05 01:50:31;;;;;;;6.07;1.80;;;15.30;99.90;;;;;;4246445;28;20047;-58
2024/04/05 01:52:33;;;;;;;0.52;0.20;;;15.20;99.90;;;;;;4229648;28;20546;-59
2024/04/05 01:54:34;;;;;;;0.75;0.20;;;15.20;99.90;;;;;;4246462;28;20051;-58
2024/04/05 01:56:36;;;;;;;0.50;0.47;;;15.20;99.90;;;;;;4246933;28;20096;-57
2024/04/05 01:58:37;;;;;;;0.63;0.22;;;15.20;99.90;;;;;;4245933;28;20051;-59
2024/04/05 02:00:38;;;;;;;0.77;0.38;;;15.20;99.90;;;;;;4246441;28;20522;-58
2024/04/05 02:02:40;;;;;;;0.30;0.30;;;15.20;99.90;;;;;;4246415;28;20051;-60
2024/04/05 02:04:41;;;;;;;0.98;0.60;;;15.20;99.90;;;;;;4246392;28;20404;-58
2024/04/05 02:06:42;;;;;;;1.25;0.55;;;15.10;99.90;;;;;;4229277;28;20054;-59
2024/04/05 02:08:44;;;;;;;0.50;0.45;;;15.10;99.90;;;;;;4246252;28;20084;-58
2024/04/05 02:10:45;;;;;;;0.30;0.20;;;15.10;99.90;;;;;;4246254;28;20043;-58
2024/04/05 02:12:48;;;;;;;0.15;0.15;;;15.10;99.90;;;;;;4245876;28;20058;-58
2024/04/05 02:14:49;;;;;;;0.65;0.38;;;15.10;99.90;;;;;;4246806;27;20067;-58
2024/04/05 02:16:50;;;;;;;0.40;0.30;;;15.10;99.90;;;;;;4249749;27;20043;-58
2024/04/05 02:18:51;;;;;;;1.55;0.43;;;15.10;99.90;;;;;;4249392;27;20047;-58
2024/04/05 02:20:53;;;;;;;0.75;0.55;;;15.10;99.90;;;;;;4249624;27;20118;-58
2024/04/05 02:22:55;;;;;;;1.65;0.30;;;15.10;99.90;;;;;;4249202;27;20123;-58
2024/04/05 02:24:56;;;;;;;0.25;0.20;;;15.20;99.90;;;;;;4249308;27;20047;-58
2024/04/05 02:26:57;;;;;;;0.30;0.30;;;15.10;99.90;;;;;;4249277;27;20041;-57
2024/04/05 02:28:59;;;;;;;0.47;0.15;;;15.10;99.90;;;;;;4248965;27;20056;-58
2024/04/05 02:31:00;;;;;;;0.65;0.20;;;15.20;99.90;;;;;;4249589;27;20047;-58
2024/04/05 02:33:02;;;;;;;0.38;0.15;;;15.20;99.90;;;;;;4233149;28;20054;-58
2024/04/05 02:35:05;;;;;;;0.32;0.20;;;15.20;99.90;;;;;;4249728;27;20204;-57
2024/04/05 02:37:07;;;;;;;0.65;0.63;;;15.20;99.90;;;;;;4249633;27;20424;-58
2024/04/05 02:39:10;;;;;;;0.93;0.93;;;15.20;99.90;;;;;;4249338;27;20043;-58
2024/04/05 02:41:12;;;;;;;0.30;0.30;;;15.20;99.90;;;;;;4249195;27;20043;-57
2024/04/05 02:43:13;;;;;;;0.28;0.10;;;15.20;99.90;;;;;;4248810;27;20047;-60
2024/04/05 02:45:16;;;;;;;0.38;0.20;;;15.10;99.90;;;;;;4249114;27;20508;-58
2024/04/05 02:47:17;;;;;;;5.47;0.30;;;15.10;99.90;;;;;;4249288;27;20400;-58
2024/04/05 02:49:18;;;;;;;0.70;0.25;;;15.10;99.90;;;;;;4249313;27;20054;-59
2024/04/05 02:51:20;;;;;;;0.75;0.17;;;15.10;99.90;;;;;;4249022;27;20504;-58
2024/04/05 02:53:21;;;;;;;1.45;0.85;;;15.10;99.90;;;;;;4249019;27;20043;-58
2024/04/05 02:55:22;;;;;;;1.33;0.30;;;15.10;99.90;;;;;;4249021;27;20043;-59
2024/04/05 02:57:23;;;;;;;0.20;0.20;;;15.10;99.90;;;;;;4248833;27;20437;-59
2024/04/05 02:59:24;;;;;;;0.40;0.15;;;15.10;99.90;;;;;;4249019;27;20047;-56
2024/04/05 03:01:27;;;;;;;0.60;0.17;;;15.10;99.90;;;;;;4249266;27;20049;-68
2024/04/05 03:03:29;;;;;;;1.10;0.75;;;15.20;99.90;;;;;;4249053;27;20472;-58
2024/04/05 03:05:30;;;;;;;0.40;0.20;;;15.10;99.90;;;;;;4249091;27;20146;-61
2024/04/05 03:07:31;;;;;;;1.00;0.40;;;15.10;99.90;;;;;;4248791;27;20050;-61
2024/04/05 03:09:34;;;;;;;1.60;0.20;;;15.20;99.90;;;;;;4249079;27;20047;-58
2024/04/05 03:11:35;;;;;;;1.98;0.20;;;15.20;99.90;;;;;;4248641;27;20043;-58
2024/04/05 03:13:36;;;;;;;0.25;0.25;;;15.10;99.90;;;;;;4249158;27;20047;-58
2024/04/05 03:15:37;;;;;;;0.10;0.10;;;15.20;99.90;;;;;;4248817;27;20051;-58
2024/04/05 03:17:39;;;;;;;0.63;0.20;;;15.20;99.90;;;;;;4249575;27;20047;-58
2024/04/05 03:19:41;;;;;;;0.17;0.17;;;15.20;99.90;;;;;;4248800;27;20040;-57
2024/04/05 03:21:42;;;;;;;1.48;0.88;;;15.10;99.90;;;;;;4248695;27;20047;-57
2024/04/05 03:23:43;;;;;;;1.08;0.43;;;15.10;99.90;;;;;;4248763;27;20063;-61
2024/04/05 03:25:46;;;;;;;0.30;0.20;;;15.10;99.90;;;;;;4248424;27;20081;-59
2024/04/05 03:27:48;;;;;;;1.08;0.75;;;15.10;99.90;;;;;;4248201;27;20051;-58
2024/04/05 03:29:50;;;;;;;0.40;0.38;;;15.00;99.90;;;;;;4248563;27;20046;-58
2024/04/05 03:31:51;;;;;;;1.30;1.00;;;15.10;99.90;;;;;;4248648;27;20047;-57
2024/04/05 03:33:54;;;;;;;0.60;0.60;;;15.00;99.90;;;;;;4248407;27;20093;-56
2024/04/05 03:35:55;;;;;;;0.38;0.38;;;15.10;99.90;;;;;;4231216;28;20039;-57
2024/04/05 03:37:56;;;;;;;2.38;0.70;;;15.10;99.90;;;;;;4231401;28;20055;-58
2024/04/05 03:39:58;;;;;;;0.43;0.20;;;15.00;99.90;;;;;;4248030;27;20043;-57
2024/04/05 03:41:59;;;;;;;0.35;0.30;;;15.10;99.90;;;;;;4248310;27;20047;-58
2024/04/05 03:44:00;;;;;;;1.35;0.30;;;15.00;99.90;;;;;;4248526;27;20043;-60
2024/04/05 03:46:02;;;;;;;0.40;0.20;;;15.00;99.90;;;;;;4248616;27;20039;-58
2024/04/05 03:48:04;;;;;;;0.88;0.40;;;15.00;99.90;;;;;;4248124;27;20039;-58
2024/04/05 03:50:07;;;;;;;0.40;0.30;;;15.00;99.90;;;;;;4248143;27;20127;-58
2024/04/05 03:52:08;;;;;;;1.95;0.35;;;15.00;99.90;;;;;;4248021;27;20043;-58
2024/04/05 03:54:09;;;;;;;0.20;0.10;;;15.00;99.90;;;;;;4247634;27;20047;-59
2024/04/05 03:56:10;;;;;;;0.95;0.40;;;15.00;99.90;;;;;;4248260;27;20381;-58
2024/04/05 03:58:12;;;;;;;0.25;0.13;;;14.90;99.90;;;;;;4248484;27;20050;-58
2024/04/05 04:00:14;;;;;;;0.45;0.43;;;15.00;99.90;;;;;;4247855;27;20066;-63
2024/04/05 04:02:15;;;;;;;0.40;0.10;;;15.00;99.90;;;;;;4247862;27;20047;-58
2024/04/05 04:04:16;;;;;;;0.10;0.10;;;15.00;99.90;;;;;;4247956;27;20607;-57
2024/04/05 04:06:19;;;;;;;12.43;1.08;;;15.00;99.90;;;;;;4247659;27;20050;-58
2024/04/05 04:08:20;;;;;;;0.68;0.40;;;15.00;99.90;;;;;;4247662;27;20058;-57
2024/04/05 04:10:24;;;;;;;0.77;0.30;;;15.00;99.90;;;;;;4247391;27;20039;-58
2024/04/05 04:12:25;;;;;;;1.90;1.10;;;15.00;99.90;;;;;;4247546;27;20114;-65
2024/04/05 04:14:26;;;;;;;0.17;0.10;;;15.10;99.90;;;;;;4247538;27;20112;-60
2024/04/05 04:16:28;;;;;;;0.98;0.10;;;15.00;99.90;;;;;;4247753;27;20050;-57
2024/04/05 04:18:29;;;;;;;1.15;0.50;;;15.00;99.90;;;;;;4248117;27;20054;-58
2024/04/05 04:20:30;;;;;;;0.25;0.22;;;15.00;99.90;;;;;;4247775;27;20107;-57
2024/04/05 04:22:33;;;;;;;2.10;0.85;;;15.00;99.90;;;;;;4247094;27;20055;-58
2024/04/05 04:24:35;;;;;;;0.30;0.13;;;15.00;99.90;;;;;;4247103;27;20043;-58
2024/04/05 04:26:36;;;;;;;1.33;0.35;;;15.10;99.90;;;;;;4247484;27;20061;-62
2024/04/05 04:28:37;;;;;;;0.52;0.10;;;15.10;99.90;;;;;;4247271;27;20051;-61
2024/04/05 04:30:38;;;;;;;0.77;0.70;;;15.10;99.90;;;;;;4247235;27;20050;-58
2024/04/05 04:32:39;;;;;;;0.52;0.52;;;15.10;99.90;;;;;;4247274;27;20059;-63
2024/04/05 04:34:40;;;;;;;0.63;0.30;;;15.10;99.90;;;;;;4247170;27;20050;-58
2024/04/05 04:36:41;;;;;;;0.88;0.57;;;15.10;99.90;;;;;;4247399;27;20047;-57
2024/04/05 04:38:44;;;;;;;0.90;0.22;;;15.10;99.90;;;;;;4246730;27;20047;-58
2024/04/05 04:40:45;;;;;;;0.43;0.40;;;15.00;99.90;;;;;;4248182;27;20050;-58
2024/04/05 04:42:46;;;;;;;1.27;0.95;;;15.10;99.90;;;;;;4247316;27;20519;-58
2024/04/05 04:44:47;;;;;;;1.60;0.75;;;15.10;99.90;;;;;;4247435;27;20055;-58
2024/04/05 04:46:48;;;;;;;0.25;0.25;;;15.10;99.90;;;;;;4247015;27;20043;-57
2024/04/05 04:48:49;;;;;;;0.50;0.28;;;15.10;99.90;;;;;;4247322;27;20472;-57
2024/04/05 04:50:50;;;;;;;0.15;0.15;;;15.10;99.90;;;;;;4247027;27;20047;-58
2024/04/05 04:52:51;;;;;;;0.10;0.10;;;15.10;99.90;;;;;;4246825;27;20080;-58
2024/04/05 04:54:56;;;;;;;0.60;0.28;;;15.10;99.90;;;;;;4246831;27;20043;-61
2024/04/05 04:56:57;;;;;;;;;;;15.10;99.90;;;;;;4248082;27;20054;-58
2024/04/05 04:58:58;;;;;;;0.30;0.30;;;15.20;99.90;;;;;;4247834;27;19938;-59
2024/04/05 05:01:00;;;;;;;0.20;0.20;;;15.20;99.90;;;;;;4247894;27;20051;-58
2024/04/05 05:03:01;;;;;;;4.50;1.50;;;15.20;99.90;;;;;;4247257;27;20100;-57
2024/04/05 05:05:03;;;;;;;0.93;0.20;;;15.20;99.90;;;;;;4247109;27;20501;-58
2024/04/05 05:07:06;;;;;;;0.22;0.10;;;15.10;99.90;;;;;;4246350;27;20046;-61
2024/04/05 05:09:07;;;;;;;3.33;1.77;;;15.20;99.90;;;;;;4246949;27;20055;-57
2024/04/05 05:11:10;;;;;;;0.30;0.13;;;15.20;99.90;;;;;;4246814;27;20035;-63
2024/04/05 05:13:11;;;;;;;0.98;0.60;;;15.20;99.90;;;;;;4246703;27;20066;-57
2024/04/05 05:15:12;;;;;;;0.32;0.30;;;15.20;99.90;;;;;;4246910;27;20046;-63
2024/04/05 05:17:14;;;;;;;0.63;0.32;;;15.20;99.90;;;;;;4247018;27;20070;-58
2024/04/05 05:19:15;;;;;;;0.75;0.45;;;15.20;99.90;;;;;;4246890;27;20047;-57
2024/04/05 05:21:16;;;;;;;0.82;0.75;;;15.20;99.90;;;;;;4247022;27;20043;-58
2024/04/05 05:23:18;;;;;;;0.20;0.20;;;15.30;99.90;;;;;;4246475;27;20100;-59
2024/04/05 05:25:19;;;;;;;0.45;0.20;;;15.20;99.90;;;;;;4246579;27;20050;-59
2024/04/05 05:27:21;;;;;;;1.17;0.55;;;15.30;99.90;;;;;;4246765;28;20050;-56
2024/04/05 05:29:22;;;;;;;1.15;0.20;;;15.30;99.90;;;;;;4246712;28;20043;-58
2024/04/05 05:31:24;;;;;;;1.20;0.38;;;15.40;99.90;;;;;;4246664;28;20488;-56
2024/04/05 05:33:25;;;;;;;0.77;0.70;;;15.40;99.90;;;;;;4246750;28;20047;-56
2024/04/05 05:35:26;;;;;;;1.10;0.50;;;15.40;99.90;;;;;;4246608;28;20039;-56
2024/04/05 05:37:27;;;;;;;0.65;0.57;;;15.40;99.90;;;;;;4246448;28;20053;-56
2024/04/05 05:39:28;;;;;;;0.30;0.20;;;15.40;99.90;;;;;;4246479;28;20072;-56
2024/04/05 05:41:29;;;;;;;0.15;0.15;;;15.40;99.90;;;;;;4247085;28;20047;-58
2024/04/05 05:43:32;;;;;;;1.83;0.20;;;15.50;99.90;;;;;;4247054;28;20039;-59
2024/04/05 05:45:34;;;;;;;0.35;0.20;;;15.50;99.90;;;;;;4246515;28;20454;-58
2024/04/05 05:47:35;;;;;;;1.10;0.50;;;15.50;99.90;;;;;;4246513;28;20084;-57
2024/04/05 05:49:36;;;;;;;0.40;0.20;;;15.50;99.90;;;;;;4247299;27;20054;-58
2024/04/05 05:51:37;;;;;;;1.88;0.25;;;15.60;99.90;;;;;;4249731;27;20051;-57
2024/04/05 05:53:38;;;;;;;0.60;0.30;;;15.60;99.90;;;;;;4250369;27;20043;-58
2024/04/05 05:55:39;;;;;;;0.43;0.40;;;15.60;99.90;;;;;;4233244;28;20040;-59
2024/04/05 05:57:40;;;;;;;0.15;0.13;;;15.60;99.90;;;;;;4250462;27;20118;-58
2024/04/05 05:59:43;;;;;;;0.43;0.32;;;15.70;99.80;;;;;;4250181;27;20043;-56
2024/04/05 06:01:44;;;;;;;0.47;0.20;;;15.70;99.60;;;;;;4233140;28;20089;-56
2024/04/05 06:03:45;;;;;;;0.35;0.20;;;15.70;99.60;;;;;;4250285;27;20047;-56
2024/04/05 06:05:50;;;;;;;1.20;0.38;;;15.80;99.40;;;;;;4249483;27;20039;-58
2024/04/05 06:07:51;;;;;;;0.20;0.20;;;15.80;99.30;;;;;;4249666;27;20126;-59
2024/04/05 06:09:52;;;;;;;0.52;0.20;;;15.90;99.20;;;;;;4249774;27;20051;-55
2024/04/05 06:11:54;;;;;;;0.73;0.20;;;15.90;98.80;;;;;;4250049;27;20500;-56
2024/04/05 06:13:55;;;;;;;0.17;0.17;;;16.00;98.80;;;;;;4250014;27;20043;-56
2024/04/05 06:15:58;;;;;;;0.20;0.20;;;16.00;98.70;;;;;;4249621;27;20047;-58
2024/04/05 06:17:59;;;;;;;0.75;0.50;;;16.00;98.50;;;;;;4249882;27;20043;-63
2024/04/05 06:20:01;;;;;;;0.93;0.20;;;16.10;98.60;;;;;;4249356;27;20046;-58
2024/04/05 06:22:02;;;;;;;6.22;0.35;;;16.10;98.30;;;;;;4249498;27;20055;-61
2024/04/05 06:24:04;;;;;;;2.80;0.60;;;16.10;98.10;;;;;;4250211;27;20120;-58
2024/04/05 06:26:05;;;;;;;1.08;0.35;;;16.10;97.70;;;;;;4250225;27;20119;-58
2024/04/05 06:28:06;;;;;;;1.10;0.30;;;16.20;98.00;;;;;;4249453;27;20074;-61
2024/04/05 06:30:10;;;;;;;3.30;1.25;;;16.20;97.70;;;;;;4232401;28;20048;-60
2024/04/05 06:32:12;;;;;;;0.93;0.25;;;16.30;97.60;;;;;;4249302;27;20054;-67
2024/04/05 06:34:13;;;;;;;0.47;0.20;;;16.30;97.40;;;;;;4249063;27;20047;-57
2024/04/05 06:36:15;;;;;;;1.00;0.38;;;16.30;97.40;;;;;;4249326;27;20061;-62
2024/04/05 06:38:16;;;;;;;0.70;0.38;;;16.30;97.30;;;;;;4249305;27;20047;-58
2024/04/05 06:40:17;;;;;;;0.68;0.38;;;16.40;97.30;;;;;;4249148;27;20051;-58
2024/04/05 06:42:20;;;;;;;0.40;0.30;;;16.40;96.90;;;;;;4248940;27;20047;-56
2024/04/05 06:44:21;;;;;;;0.50;0.30;;;16.40;96.80;;;;;;4249352;27;20051;-65
2024/04/05 06:46:24;;;;;;;0.52;0.20;;;16.50;96.90;;;;;;4249548;27;20043;-58
2024/04/05 06:48:27;;;;;;;1.42;0.73;;;16.50;96.50;;;;;;4248699;27;20051;-58
2024/04/05 06:50:30;;;;;;;1.50;0.60;;;16.50;96.80;;;;;;4248855;27;20412;-56
2024/04/05 06:52:31;;;;;;;0.70;0.70;;;16.50;96.70;;;;;;4248784;27;20100;-55
2024/04/05 06:54:33;;;;;;;0.20;0.20;;;16.50;96.70;;;;;;4249084;27;20047;-56
2024/04/05 06:56:34;;;;;;;0.10;0.00;;;16.60;96.90;;;;;;4248817;27;20047;-56
2024/04/05 06:58:35;;;;;;;0.10;0.00;;;16.60;96.40;;;;;;4249045;27;20051;-56
2024/04/05 07:00:36;;;;;;;0.10;0.10;;;16.60;96.50;;;;;;4248797;27;20062;-57
2024/04/05 07:02:37;;;;;;;0.20;0.20;;;16.60;97.00;;;;;;4247573;27;20046;-55
2024/04/05 07:04:43;;;;;;;3.40;1.10;;;16.60;96.80;;;;;;4248635;27;20438;-58
2024/04/05 07:06:44;;;;;;;1.15;0.65;;;16.60;96.90;;;;;;4265853;27;20043;-59
2024/04/05 07:08:46;;;;;;;0.93;0.20;;;16.60;97.50;;;;;;4249398;27;20498;-60
2024/04/05 07:10:47;;;;;;;1.63;0.30;;;16.60;97.30;;;;;;4248979;27;20050;-56
2024/04/05 07:12:50;;;;;;;0.17;0.10;;;16.60;97.60;;;;;;4248901;27;20043;-56
2024/04/05 07:14:51;;;;;;;0.20;0.13;;;16.60;98.10;;;;;;4248607;27;20480;-56
2024/04/05 07:16:53;;;;;;;0.68;0.60;;;16.60;97.80;;;;;;4248483;27;20050;-55
2024/04/05 07:18:54;;;;;;;0.17;0.17;;;16.60;97.60;;;;;;4248341;27;20058;-55
2024/04/05 07:20:56;;;;;;;0.25;0.20;;;16.60;97.30;;;;;;4248626;27;20046;-55
2024/04/05 07:22:57;;;;;;;2.17;0.57;;;16.60;97.40;;;;;;4248042;27;20054;-55
2024/04/05 07:24:58;;;;;;;2.05;0.32;;;16.70;97.20;;;;;;4248340;27;20455;-55
2024/04/05 07:27:00;;;;;;;2.20;0.80;;;16.70;97.20;;;;;;4231785;28;20055;-58
2024/04/05 07:29:02;;;;;;;1.60;0.20;;;16.70;97.30;;;;;;4248742;27;20424;-57
2024/04/05 07:31:04;;;;;;;1.63;0.25;;;16.70;97.60;;;;;;4248477;27;20039;-57
2024/04/05 07:33:05;;;;;;;6.90;1.25;;;16.70;97.70;;;;;;4248076;27;20529;-60
2024/04/05 07:35:06;;;;;;;0.32;0.20;;;16.70;98.10;;;;;;4248355;27;20527;-55
2024/04/05 07:37:10;;;;;;;0.50;0.40;;;16.70;98.30;;;;;;4248257;27;20043;-57
2024/04/05 07:39:12;;;;;;;0.60;0.17;;;16.60;98.60;;;;;;4248187;27;20099;-58
2024/04/05 07:41:13;;;;;;;0.47;0.47;;;16.60;98.60;;;;;;4248056;27;20432;-57
2024/04/05 07:43:14;;;;;;;0.20;0.20;;;16.60;98.60;;;;;;4248229;27;20043;-59
2024/04/05 07:45:15;;;;;;;0.50;0.30;;;16.50;98.90;;;;;;4248058;27;20039;-58
2024/04/05 07:47:17;;;;;;;0.45;0.15;;;16.50;98.70;;;;;;4247631;27;20042;-58
2024/04/05 07:49:18;;;;;;;0.32;0.20;;;16.50;99.00;;;;;;4247999;27;20062;-58
2024/04/05 07:51:20;;;;;;;1.20;0.80;;;16.50;99.80;;;;;;4248639;27;20043;-59
2024/04/05 07:53:22;;;;;;;1.13;0.32;;;16.40;99.70;;;;;;4248088;27;20084;-64
2024/04/05 07:55:23;;;;;;;0.20;0.10;;;16.40;99.60;;;;;;4247910;27;20474;-63
2024/04/05 07:57:25;;;;;;;25.35;0.80;;;16.30;99.90;;;;;;4248037;27;20113;-58
2024/04/05 07:59:26;;;;;;;0.85;0.40;;;16.30;99.90;;;;;;4247909;27;20050;-57
2024/04/05 08:01:27;;;;;;;0.40;0.10;;;16.20;99.90;;;;;;4247591;27;20051;-57
2024/04/05 08:03:28;;;;;;;0.88;0.40;;;16.20;99.90;;;;;;4247667;27;20050;-59
2024/04/05 08:05:29;;;;;;;0.95;0.77;;;16.10;99.90;;;;;;4247504;27;20056;-58
2024/04/05 08:07:30;;;;;;;0.03;0.03;;;16.10;99.90;;;;;;4247542;27;20092;-58
2024/04/05 08:09:33;;;;;;;3.30;0.63;;;16.10;99.90;;;;;;4247790;27;20112;-59
2024/04/05 08:11:34;;;;;;;2.05;0.20;;;16.10;99.90;;;;;;4248206;27;20455;-63
2024/04/05 08:13:36;;;;;;;0.25;0.20;;;16.10;99.90;;;;;;4229575;28;20386;-58
2024/04/05 08:15:37;;;;;;;0.40;0.38;;;16.20;99.90;;;;;;4247214;27;20084;-56
2024/04/05 08:17:38;;;;;;;2.38;0.82;;;16.20;99.90;;;;;;4247674;27;20093;-58
2024/04/05 08:19:40;;;;;;;1.17;0.77;;;16.20;99.90;;;;;;4247668;27;20047;-60
2024/04/05 08:21:41;;;;;;;3.70;1.02;;;16.20;99.90;;;;;;4230567;28;20058;-59
2024/04/05 08:23:42;;;;;;;2.05;0.30;;;16.20;99.90;;;;;;4247557;27;20050;-57
2024/04/05 08:25:45;;;;;;;0.10;0.10;;;16.10;99.90;;;;;;4247394;27;20108;-56
2024/04/05 08:27:47;;;;;;;1.38;0.38;;;16.10;99.90;;;;;;4247304;27;20043;-62
2024/04/05 08:29:48;;;;;;;1.98;0.57;;;16.10;99.90;;;;;;4230401;28;20055;-59
2024/04/05 08:31:49;;;;;;;0.13;0.13;;;16.10;99.90;;;;;;4247348;27;20471;-56
2024/04/05 08:33:50;;;;;;;1.10;0.30;;;16.10;99.90;;;;;;4247323;27;20443;-60
2024/04/05 08:35:52;;;;;;;1.63;0.98;;;16.10;99.90;;;;;;4247286;27;20047;-57
2024/04/05 08:38:01;;;;;;;0.20;0.20;;;16.20;99.90;;;;;;4247027;27;20058;-57
2024/04/05 08:40:03;;;;;;;0.95;0.52;;;16.20;99.90;;;;;;4247282;27;20047;-57
2024/04/05 08:42:12;;;;;;;3.50;0.50;;;16.20;99.90;;;;;;4247001;27;20404;-56
2024/04/05 08:44:14;;;;;;;1.42;0.60;;;16.30;99.90;;;;;;4263754;27;20038;-60
2024/04/05 08:46:16;;;;;;;0.30;0.30;;;16.30;99.90;;;;;;4247106;27;20454;-63
2024/04/05 08:48:20;;;;;;;0.20;0.20;;;16.30;99.90;;;;;;4247214;27;20054;-57
2024/04/05 08:50:22;;;;;;;;;;;16.30;99.90;;;;;;4230571;28;20127;-58
2024/04/05 08:52:23;;;;;;;0.43;0.43;;;16.40;99.90;;;;;;4230001;28;20288;-57
2024/04/05 08:54:25;;;;;;;4.05;0.50;;;16.40;99.90;;;;;;4230041;28;20044;-57
2024/04/05 08:56:29;;;;;;;0.17;0.17;;;16.40;99.90;;;;;;4246895;27;20381;-58
2024/04/05 08:58:31;;;;;;;4.47;0.40;;;16.50;99.90;;;;;;4229899;28;20105;-66
2024/04/05 09:00:33;;;;;;;0.43;0.20;;;16.40;99.90;;;;;;4246459;27;20054;-57
2024/04/05 09:02:35;;;;;;;2.10;0.90;;;16.50;99.90;;;;;;4246824;27;20428;-57
2024/04/05 09:04:36;;;;;;;0.45;0.20;;;16.50;99.90;;;;;;4246955;27;20462;-56
2024/04/05 09:06:39;;;;;;;0.20;0.20;;;16.50;99.90;;;;;;4246928;27;20104;-56
2024/04/05 09:08:43;;;;;;;1.05;0.38;;;16.60;99.90;;;;;;4246544;27;20043;-56
2024/04/05 09:10:48;;;;;;;0.25;0.20;;;16.70;99.90;;;;;;4246797;27;20051;-57
2024/04/05 09:12:51;;;;;;;0.20;0.20;;;16.80;99.90;;;;;;4246746;27;20050;-56
2024/04/05 09:15:03;;;;;;;1.35;0.70;;;16.80;99.90;;;;;;4246207;27;20039;-56
2024/04/05 09:17:13;;;;;;;0.00;0.00;;;16.80;99.90;;;;;;4246862;27;20143;-56
2024/04/05 09:19:14;;;;;;;1.27;0.25;;;16.80;99.90;;;;;;4246629;27;20039;-60
2024/04/05 09:21:15;;;;;;;0.55;0.20;;;16.80;99.90;;;;;;4246626;27;20040;-64
2024/04/05 09:23:16;;;;;;;1.75;0.70;;;16.90;99.90;;;;;;4246332;27;20075;-56
2024/04/05 09:25:17;;;;;;;0.40;0.30;;;17.00;99.90;;;;;;4246139;27;20043;-56
2024/04/05 09:27:19;;;;;;;5.80;1.35;;;17.10;99.90;;;;;;4246473;27;20500;-56
2024/04/05 09:29:20;;;;;;;0.55;0.30;;;17.20;99.90;;;;;;4246417;27;20048;-57
2024/04/05 09:31:24;;;;;;;0.65;0.20;;;17.30;99.90;;;;;;4246562;28;20043;-56
2024/04/05 09:33:25;;;;;;;0.30;0.30;;;17.20;99.90;;;;;;4246729;28;20043;-57
2024/04/05 09:35:28;;;;;;;0.40;0.20;;;17.20;99.90;;;;;;4246531;28;20088;-59
2024/04/05 09:37:29;;;;;;;0.77;0.20;;;17.30;99.90;;;;;;4246792;28;20051;-56
2024/04/05 09:39:31;;;;;;;1.50;0.85;;;17.30;99.80;;;;;;4246559;28;20039;-58
2024/04/05 09:41:35;;;;;;;1.55;0.40;;;17.30;99.90;;;;;;4246709;28;20039;-63
2024/04/05 09:43:38;;;;;;;0.50;0.50;;;17.30;99.90;;;;;;4246439;28;20046;-58
2024/04/05 09:45:42;;;;;;;0.50;0.50;;;17.30;99.90;;;;;;4246643;28;20043;-67
2024/04/05 09:47:46;;;;;;;2.28;0.50;;;17.40;99.90;;;;;;4246622;28;20454;-59
2024/04/05 09:49:47;;;;;;;8.88;1.38;;;17.40;99.70;;;;;;4246706;28;20460;-59
2024/04/05 09:51:53;;;;;;;0.25;0.25;;;17.40;99.80;;;;;;4246983;28;20541;-62
2024/04/05 09:53:56;;;;;;;1.00;0.20;;;17.50;99.70;;;;;;4246812;28;20050;-60
2024/04/05 09:56:02;;;;;;;1.08;0.30;;;17.60;99.80;;;;;;4246942;28;20059;-61
2024/04/05 09:58:05;;;;;;;0.40;0.20;;;17.70;99.40;;;;;;4263585;27;20083;-63
2024/04/05 10:00:15;;;;;;;1.05;0.63;;;17.80;99.30;;;;;;4247063;28;20039;-59
2024/04/05 10:02:18;;;;;;;0.90;0.43;;;17.90;99.40;;;;;;4246745;28;20047;-59
2024/04/05 10:04:21;;;;;;;0.25;0.20;;;18.10;98.80;;;;;;4246749;28;20065;-59
2024/04/05 10:06:33;;;;;;;0.65;0.40;;;18.10;98.80;;;;;;4246532;28;20096;-58
2024/04/05 10:08:34;;;;;;;0.43;0.28;;;18.20;98.90;;;;;;4246407;28;20051;-59
2024/04/05 10:10:36;;;;;;;2.65;0.47;;;18.20;98.80;;;;;;4246379;28;20047;-58
2024/04/05 10:12:37;;;;;;;1.00;0.63;;;18.20;98.60;;;;;;4245980;28;20125;-60
2024/04/05 10:14:39;;;;;;;0.35;0.20;;;18.30;98.60;;;;;;4246203;28;20053;-58
2024/04/05 10:16:40;;;;;;;0.77;0.30;;;18.40;98.80;;;;;;4246477;28;20045;-64
2024/04/05 10:18:42;;;;;;;0.38;0.38;;;18.40;99.00;;;;;;4246394;28;20109;-59
2024/04/05 10:20:44;;;;;;;2.75;0.63;;;18.50;98.80;;;;;;4246655;28;20043;-66
2024/04/05 10:22:56;;;;;;;0.28;0.10;;;18.60;98.60;;;;;;4246687;28;20061;-60
2024/04/05 10:24:57;;;;;;;0.38;0.30;;;18.70;98.60;;;;;;4246156;28;20051;-61
2024/04/05 10:26:58;;;;;;;0.05;0.05;;;18.80;98.30;;;;;;4245948;28;20492;-57
2024/04/05 10:29:01;;;;;;;0.50;0.30;;;18.90;98.80;;;;;;4246034;28;20162;-61
2024/04/05 10:31:02;;;;;;;0.50;0.47;;;19.00;98.10;;;;;;4246179;28;20108;-56
2024/04/05 10:33:03;;;;;;;0.50;0.20;;;19.00;98.20;;;;;;4246066;28;20039;-60
2024/04/05 10:35:06;;;;;;;0.70;0.30;;;19.00;97.90;;;;;;4246090;28;20065;-62